Terminal Aerodrome Forecast
Issued by NWS Grand Forks, ND

Home | Current Version | Previous Version | Text Only | Print | Product List | Glossary Off
Versions: 1 2 3 4 5 6 7 8 9 10 11 12 13 14 15 16 17 18 19 20 21

000
FTUS43 KFGF 022040 AAA
TAFGFK
TAF AMD
KGFK 022040Z 0221/0318 VRB05KT P6SM BKN050
      TEMPO 0221/0224 BKN030
     FM030000 VRB06KT P6SM VCTS BKN030CB
      TEMPO 0300/0304 -TSRA BKN025CB
     FM030500 01009KT P6SM OVC015=

USA.gov is the U.S. government's official web portal to all federal, state and local government web resources and services.